Time;durP1;ratioP1;P1;durP2;ratioP2;P2;SDS_P1;SDS_P2;PMS_P1;PMS_P2;Temp;Humidity;BMP_temperature;BMP_pressure;BME280_temperature;BME280_humidity;BME280_pressure;Samples;Min_cycle;Max_cycle;Signal;HPM_P1;HPM_P2
2021/04/28 00:01:21;;;;;;;10.15;3.05;;;;;;;8.92;70.63;100616.06;5032819;28;20457;-45
2021/04/28 00:03:48;;;;;;;10.52;2.55;;;;;;;8.86;70.97;100600.84;5032690;28;20121;-45
2021/04/28 00:06:14;;;;;;;10.70;1.95;;;;;;;8.90;70.75;100617.53;5031630;28;20041;-45
2021/04/28 00:08:41;;;;;;;5.15;1.50;;;;;;;8.90;70.71;100606.50;5015199;28;20049;-45
2021/04/28 00:11:10;;;;;;;7.78;2.60;;;;;;;8.88;70.83;100604.09;5033834;28;20777;-45
2021/04/28 00:13:37;;;;;;;11.10;2.72;;;;;;;8.87;70.76;100602.47;5032121;28;20052;-45
2021/04/28 00:16:03;;;;;;;11.57;1.80;;;;;;;8.84;70.89;100608.66;5031523;28;20131;-45
2021/04/28 00:18:30;;;;;;;8.82;1.77;;;;;;;8.88;70.82;100601.31;5031909;28;20116;-45
2021/04/28 00:20:56;;;;;;;10.90;1.85;;;;;;;8.88;70.94;100604.09;5032064;28;20084;-45
2021/04/28 00:23:23;;;;;;;7.22;1.98;;;;;;;8.87;71.03;100602.47;5032258;28;20128;-45
2021/04/28 00:25:49;;;;;;;8.07;1.50;;;;;;;8.83;70.98;100609.81;5015979;28;20084;-46
2021/04/28 00:28:18;;;;;;;12.82;1.50;;;;;;;8.87;70.76;100610.75;5031897;28;20049;-45
2021/04/28 00:30:44;;;;;;;8.68;1.35;;;;;;;8.84;70.88;100619.69;5032150;28;20123;-46
2021/04/28 00:33:11;;;;;;;7.38;1.70;;;;;;;8.81;70.99;100606.59;5032065;28;20684;-45
2021/04/28 00:35:38;;;;;;;12.02;1.45;;;;;;;8.84;70.99;100614.16;5031917;28;20081;-46
2021/04/28 00:38:04;;;;;;;9.52;1.33;;;;;;;8.81;71.00;100617.63;5031380;28;20183;-46
2021/04/28 00:40:34;;;;;;;9.65;1.80;;;;;;;8.80;71.14;100612.44;5031882;28;20046;-45
2021/04/28 00:43:01;;;;;;;7.43;1.48;;;;;;;8.77;71.08;100613.09;5031648;28;20117;-46
2021/04/28 00:45:29;;;;;;;8.65;1.30;;;;;;;8.73;71.14;100607.47;5032111;28;20137;-45
2021/04/28 00:48:00;;;;;;;7.18;1.33;;;;;;;8.74;71.13;100611.00;5014288;28;20099;-47
2021/04/28 00:50:35;;;;;;;7.10;1.00;;;;;;;8.69;71.09;100617.53;5031729;28;20387;-47
2021/04/28 00:53:03;;;;;;;5.90;1.38;;;;;;;8.65;71.03;100605.56;5017011;28;20053;-45
2021/04/28 00:55:29;;;;;;;10.40;1.40;;;;;;;8.62;71.06;100611.75;5012308;28;20487;-51
2021/04/28 00:57:55;;;;;;;8.38;1.60;;;;;;;8.61;71.26;100610.13;5024902;28;20132;-45
2021/04/28 01:00:27;;;;;;;5.80;1.35;;;;;;;8.60;71.20;100603.00;5031481;28;20410;-45
2021/04/28 01:02:54;;;;;;;5.40;1.23;;;;;;;8.63;71.01;100607.84;5031618;28;20148;-45
2021/04/28 01:05:21;;;;;;;4.10;1.42;;;;;;;8.64;71.16;100603.94;5032830;28;20056;-48
2021/04/28 01:07:50;;;;;;;5.40;1.40;;;;;;;8.60;71.07;100605.78;5030488;28;20049;-45
2021/04/28 01:10:19;;;;;;;7.97;1.00;;;;;;;8.57;71.09;100606.44;5031461;28;20080;-45
2021/04/28 01:12:45;;;;;;;9.77;1.33;;;;;;;8.53;71.07;100606.28;5031771;28;20091;-46
2021/04/28 01:15:16;;;;;;;8.18;1.23;;;;;;;8.51;71.03;100593.97;5031341;28;20165;-46
2021/04/28 01:17:43;;;;;;;11.57;1.35;;;;;;;8.47;71.14;100599.34;5024820;28;20088;-46
2021/04/28 01:20:12;;;;;;;5.88;1.60;;;;;;;8.46;71.51;100591.41;5025924;28;20502;-46
2021/04/28 01:22:40;;;;;;;4.78;0.90;;;;;;;8.49;71.41;100590.75;5030881;28;20041;-45
2021/04/28 01:25:12;;;;;;;7.97;1.40;;;;;;;8.44;71.71;100596.47;5031418;28;20041;-45
2021/04/28 01:27:42;;;;;;;7.90;1.42;;;;;;;8.46;71.52;100597.75;5031220;28;20083;-46
2021/04/28 01:30:11;;;;;;;9.90;2.38;;;;;;;8.49;71.50;100596.25;5031503;28;20521;-51
2021/04/28 01:32:44;;;;;;;4.40;0.98;;;;;;;8.47;71.78;100593.03;5031122;28;20053;-45
2021/04/28 01:35:16;;;;;;;4.15;1.52;;;;;;;8.47;71.64;100587.53;5035237;28;20037;-46
2021/04/28 01:37:43;;;;;;;7.40;1.00;;;;;;;8.48;71.59;100597.41;5031295;28;20133;-46
2021/04/28 01:40:12;;;;;;;8.75;1.55;;;;;;;8.52;71.31;100601.13;5030530;28;20041;-46
2021/04/28 01:42:39;;;;;;;5.05;1.63;;;;;;;8.56;71.46;100602.06;5030892;28;20038;-44
2021/04/28 01:45:06;;;;;;;5.38;1.00;;;;;;;8.58;71.51;100599.75;5030911;28;20549;-46
2021/04/28 01:47:33;;;;;;;10.00;2.15;;;;;;;8.48;71.37;100600.16;5030636;28;20139;-45
2021/04/28 01:50:00;;;;;;;7.72;1.00;;;;;;;8.45;71.37;100595.31;5030413;28;20065;-45
2021/04/28 01:52:26;;;;;;;8.30;1.17;;;;;;;8.44;71.40;100600.03;5030778;28;20076;-47
2021/04/28 01:54:53;;;;;;;2.63;1.33;;;;;;;8.47;71.24;100606.84;5031255;28;20042;-49
2021/04/28 01:57:19;;;;;;;3.42;0.60;;;;;;;8.49;71.01;100601.78;5031089;28;20124;-45
2021/04/28 01:59:46;;;;;;;10.18;0.93;;;;;;;8.48;71.21;100598.22;5027837;28;20065;-46
2021/04/28 02:02:13;;;;;;;5.75;1.05;;;;;;;8.47;71.02;100602.09;5028362;28;20077;-46
2021/04/28 02:04:40;;;;;;;7.47;1.25;;;;;;;8.38;71.22;100608.81;5030850;28;20135;-45
2021/04/28 02:07:06;;;;;;;7.18;1.00;;;;;;;8.35;71.39;100606.72;5031008;28;20498;-47
2021/04/28 02:09:33;;;;;;;2.78;0.85;;;;;;;8.29;71.26;100606.09;5042231;28;20136;-47
2021/04/28 02:11:59;;;;;;;5.90;0.90;;;;;;;8.31;70.93;100606.56;5031164;28;20073;-46
2021/04/28 02:14:27;;;;;;;6.68;1.10;;;;;;;8.30;70.76;100604.97;5030945;28;20096;-47
2021/04/28 02:16:54;;;;;;;5.38;1.40;;;;;;;8.31;70.87;100614.06;5030242;28;20037;-46
2021/04/28 02:19:21;;;;;;;3.88;0.70;;;;;;;8.31;70.78;100616.81;5034314;28;20045;-45
2021/04/28 02:21:50;;;;;;;5.72;1.10;;;;;;;8.27;70.73;100616.66;5034699;28;20084;-45
2021/04/28 02:24:16;;;;;;;5.82;1.15;;;;;;;8.25;70.91;100607.91;5035208;28;20049;-47
2021/04/28 02:26:44;;;;;;;4.78;0.90;;;;;;;8.22;70.72;100614.06;5033539;28;20037;-49
2021/04/28 02:29:11;;;;;;;7.32;2.03;;;;;;;8.22;70.98;100618.78;5034666;28;20060;-45
2021/04/28 02:31:38;;;;;;;8.82;1.00;;;;;;;8.21;71.22;100611.63;5034153;28;20144;-46
2021/04/28 02:34:06;;;;;;;9.15;1.38;;;;;;;8.22;71.20;100625.09;5034554;28;20038;-46
2021/04/28 02:36:40;;;;;;;5.28;1.10;;;;;;;8.26;71.48;100614.22;5034196;28;20729;-46
2021/04/28 02:39:11;;;;;;;7.18;1.20;;;;;;;8.29;71.29;100621.84;5035299;28;20386;-46
2021/04/28 02:41:43;;;;;;;4.25;1.05;;;;;;;8.37;71.23;100626.50;5034563;28;20466;-46
2021/04/28 02:44:11;;;;;;;4.07;0.77;;;;;;;8.40;71.17;100626.66;5034296;28;20052;-46
2021/04/28 02:46:39;;;;;;;6.18;1.88;;;;;;;8.37;71.18;100626.50;5033922;28;20045;-46
2021/04/28 02:49:06;;;;;;;10.35;2.30;;;;;;;8.39;71.18;100627.78;5034446;28;20049;-46
2021/04/28 02:51:35;;;;;;;4.50;2.08;;;;;;;8.36;71.28;100620.19;5030011;28;20053;-45
2021/04/28 02:54:04;;;;;;;5.00;0.80;;;;;;;8.35;70.97;100624.09;5016055;28;20049;-46
2021/04/28 02:56:30;;;;;;;8.30;0.98;;;;;;;8.33;71.11;100625.56;5033452;28;20494;-45
2021/04/28 02:59:01;;;;;;;5.50;1.17;;;;;;;8.31;71.13;100633.38;5039924;28;20052;-46
2021/04/28 03:01:28;;;;;;;6.20;1.23;;;;;;;8.27;71.23;100627.72;5037845;28;20471;-45
2021/04/28 03:03:55;;;;;;;7.05;1.48;;;;;;;8.24;71.29;100628.34;5033818;28;20045;-45
2021/04/28 03:06:22;;;;;;;17.60;1.92;;;;;;;8.22;71.21;100619.59;5034017;28;20065;-45
2021/04/28 03:08:49;;;;;;;8.25;1.80;;;;;;;8.23;71.27;100625.91;5015716;28;20096;-45
2021/04/28 03:11:16;;;;;;;8.65;1.58;;;;;;;8.19;71.55;100624.94;5033938;28;20461;-45
2021/04/28 03:13:43;;;;;;;8.52;1.58;;;;;;;8.28;71.04;100625.75;5033973;28;20381;-45
2021/04/28 03:16:13;;;;;;;5.50;2.00;;;;;;;8.24;71.44;100633.03;5039880;28;20080;-46
2021/04/28 03:18:41;;;;;;;4.93;1.13;;;;;;;8.19;71.53;100624.94;5033773;28;20049;-50
2021/04/28 03:21:09;;;;;;;3.60;1.17;;;;;;;8.15;71.48;100615.75;5032893;28;20045;-46
2021/04/28 03:23:35;;;;;;;9.88;1.67;;;;;;;8.11;71.29;100634.06;5033819;28;20075;-45
2021/04/28 03:26:02;;;;;;;6.80;1.52;;;;;;;8.11;71.60;100628.56;5032953;28;20076;-45
2021/04/28 03:28:32;;;;;;;4.20;1.42;;;;;;;8.10;71.14;100635.22;4997039;28;20044;-48
2021/04/28 03:30:59;;;;;;;11.45;2.00;;;;;;;8.10;71.42;100632.47;5034471;28;20052;-45
2021/04/28 03:33:26;;;;;;;6.13;1.83;;;;;;;8.14;71.28;100638.94;5052646;28;20132;-45
2021/04/28 03:35:53;;;;;;;8.73;1.60;;;;;;;8.15;71.21;100635.03;5035163;28;20440;-50
2021/04/28 03:38:19;;;;;;;5.60;1.65;;;;;;;8.12;71.10;100628.25;5033628;28;20077;-45
2021/04/28 03:40:46;;;;;;;7.63;1.75;;;;;;;8.07;70.78;100635.88;5032909;28;20049;-47
2021/04/28 03:43:13;;;;;;;3.38;1.15;;;;;;;8.07;70.61;100641.41;5033598;28;20164;-46
2021/04/28 03:45:39;;;;;;;9.25;2.05;;;;;;;8.08;70.36;100634.72;5032791;28;20060;-47
2021/04/28 03:48:05;;;;;;;9.88;2.10;;;;;;;8.07;70.44;100633.13;5033065;28;20080;-45
2021/04/28 03:50:32;;;;;;;4.90;1.52;;;;;;;8.06;70.00;100635.06;5032986;28;20112;-45
2021/04/28 03:53:09;;;;;;;5.32;1.80;;;;;;;8.03;70.11;100640.44;5031818;28;20045;-45
2021/04/28 03:55:35;;;;;;;8.05;2.28;;;;;;;8.04;70.10;100647.56;5015263;28;20072;-46
2021/04/28 03:58:02;;;;;;;9.45;1.90;;;;;;;8.04;69.96;100631.03;5033228;28;20056;-45
2021/04/28 04:00:28;;;;;;;7.20;1.85;;;;;;;8.02;69.78;100641.59;5014384;28;20463;-47
2021/04/28 04:02:55;;;;;;;7.90;2.08;;;;;;;7.99;69.34;100632.81;5015064;28;20073;-47
2021/04/28 04:05:24;;;;;;;9.23;2.08;;;;;;;7.97;69.82;100639.81;5027107;28;20048;-49
2021/04/28 04:07:51;;;;;;;9.60;2.35;;;;;;;7.98;69.61;100631.22;5032862;28;20092;-46
2021/04/28 04:10:17;;;;;;;13.18;2.63;;;;;;;8.03;70.17;100632.16;5032836;28;20132;-45
2021/04/28 04:12:43;;;;;;;18.75;3.75;;;;;;;8.06;70.33;100620.47;5032429;28;20052;-47
2021/04/28 04:15:10;;;;;;;15.90;3.55;;;;;;;8.06;70.53;100626.00;5032513;28;20124;-48
2021/04/28 04:17:37;;;;;;;13.07;2.72;;;;;;;8.05;70.83;100635.41;5032645;28;20487;-47
2021/04/28 04:20:04;;;;;;;9.32;3.40;;;;;;;8.01;70.78;100620.66;5032472;28;20128;-46
2021/04/28 04:22:32;;;;;;;10.82;3.20;;;;;;;8.07;70.59;100635.88;5032664;28;20095;-46
2021/04/28 04:24:58;;;;;;;12.48;2.78;;;;;;;8.03;70.65;100632.16;5036661;28;20056;-47
2021/04/28 04:27:26;;;;;;;12.18;2.58;;;;;;;8.04;70.73;100622.75;5032457;28;20045;-45
2021/04/28 04:29:53;;;;;;;10.45;2.85;;;;;;;7.99;70.62;100632.03;5031965;28;20073;-46
2021/04/28 04:32:19;;;;;;;6.32;2.38;;;;;;;7.95;70.60;100631.88;5032101;28;20049;-47
2021/04/28 04:34:46;;;;;;;14.93;3.05;;;;;;;7.99;70.39;100637.53;5031702;28;20050;-46
2021/04/28 04:37:13;;;;;;;9.43;2.70;;;;;;;8.01;70.62;100634.44;5032331;28;20045;-49
2021/04/28 04:39:42;;;;;;;17.70;3.75;;;;;;;7.97;70.38;100637.88;5032273;28;20052;-47
2021/04/28 04:42:10;;;;;;;10.27;2.30;;;;;;;7.95;70.13;100634.63;5041350;28;20386;-46
2021/04/28 04:44:37;;;;;;;8.98;2.38;;;;;;;7.91;70.14;100638.38;5032287;28;20124;-53
2021/04/28 04:47:03;;;;;;;6.65;2.53;;;;;;;7.88;69.78;100637.09;5031847;28;20447;-49
2021/04/28 04:49:29;;;;;;;10.13;2.88;;;;;;;7.84;69.28;100638.88;5031883;28;20454;-45
2021/04/28 04:51:56;;;;;;;13.07;2.75;;;;;;;7.83;69.14;100644.75;5031843;28;20069;-46
2021/04/28 04:54:23;;;;;;;19.40;3.22;;;;;;;7.82;69.32;100660.47;5031605;28;20053;-48
2021/04/28 04:56:49;;;;;;;14.13;4.43;;;;;;;7.86;69.44;100655.88;5031709;28;20112;-45
2021/04/28 04:59:15;;;;;;;9.27;2.85;;;;;;;7.82;69.55;100662.41;5031801;28;20080;-46
2021/04/28 05:01:42;;;;;;;12.32;5.03;;;;;;;7.80;69.57;100662.75;5031260;28;20470;-45
2021/04/28 05:04:08;;;;;;;12.75;3.75;;;;;;;7.82;69.66;100665.16;5031870;28;20468;-47
2021/04/28 05:06:34;;;;;;;11.27;3.00;;;;;;;7.79;69.90;100660.28;5031819;28;20079;-46
2021/04/28 05:09:00;;;;;;;6.53;2.88;;;;;;;7.79;70.04;100657.53;5031259;28;20057;-46
2021/04/28 05:11:27;;;;;;;7.70;2.90;;;;;;;7.76;69.65;100663.69;5031504;28;20064;-47
2021/04/28 05:13:53;;;;;;;9.77;5.18;;;;;;;7.73;69.86;100656.91;5031627;28;20120;-45
2021/04/28 05:16:22;;;;;;;8.40;2.92;;;;;;;7.72;69.86;100660.81;5014871;28;20052;-46
2021/04/28 05:18:48;;;;;;;9.38;3.15;;;;;;;7.70;69.75;100665.84;5031129;28;20033;-50
2021/04/28 05:21:16;;;;;;;9.88;2.65;;;;;;;7.67;69.76;100657.41;5031387;28;20446;-45
2021/04/28 05:23:42;;;;;;;10.90;2.80;;;;;;;7.64;69.39;100658.88;5031473;28;20495;-45
2021/04/28 05:26:08;;;;;;;9.70;3.33;;;;;;;7.69;69.56;100658.72;5031531;28;20132;-45
2021/04/28 05:28:35;;;;;;;12.20;3.88;;;;;;;7.67;69.46;100658.25;5012014;28;20060;-46
2021/04/28 05:31:01;;;;;;;11.00;3.63;;;;;;;7.67;69.62;100649.97;5031256;28;20490;-45
2021/04/28 05:33:27;;;;;;;6.32;2.92;;;;;;;7.65;69.81;100660.50;5048942;28;20087;-46
2021/04/28 05:35:54;;;;;;;14.07;3.42;;;;;;;7.64;69.46;100664.41;5030445;28;20111;-46
2021/04/28 05:38:21;;;;;;;12.38;3.13;;;;;;;7.63;69.73;100667.47;5031076;28;20037;-46
2021/04/28 05:40:47;;;;;;;10.15;4.18;;;;;;;7.61;69.70;100667.81;5030795;28;20124;-46
2021/04/28 05:43:14;;;;;;;10.35;3.80;;;;;;;7.60;69.87;100674.44;5031396;28;20077;-46
2021/04/28 05:45:43;;;;;;;16.35;3.40;;;;;;;7.61;69.97;100665.06;5030773;28;20473;-47
2021/04/28 05:48:11;;;;;;;10.68;3.55;;;;;;;7.55;69.56;100671.84;5031495;28;20092;-46
2021/04/28 05:50:38;;;;;;;13.85;3.25;;;;;;;7.53;69.63;100662.31;5030219;28;20136;-46
2021/04/28 05:53:05;;;;;;;9.98;3.78;;;;;;;7.55;69.65;100668.28;5030296;28;20140;-50
2021/04/28 05:55:31;;;;;;;13.18;3.90;;;;;;;7.56;69.40;100665.22;5030401;28;20104;-46
2021/04/28 05:57:58;;;;;;;8.85;2.50;;;;;;;7.61;69.39;100678.81;5030819;28;20053;-47
2021/04/28 06:00:25;;;;;;;9.98;3.55;;;;;;;7.66;69.19;100684.16;5030682;28;20104;-45
2021/04/28 06:02:51;;;;;;;14.48;3.75;;;;;;;7.64;69.33;100678.19;5030688;28;20132;-49
2021/04/28 06:05:19;;;;;;;12.73;3.08;;;;;;;7.64;69.61;100678.19;5030962;28;20052;-48
2021/04/28 06:07:46;;;;;;;8.40;3.38;;;;;;;7.64;69.48;100680.94;5023514;28;20049;-45
2021/04/28 06:10:14;;;;;;;8.57;3.40;;;;;;;7.63;69.37;100684.00;5031128;28;20065;-48
2021/04/28 06:12:42;;;;;;;11.18;3.65;;;;;;;7.63;69.67;100671.03;5030136;28;20072;-46
2021/04/28 06:15:10;;;;;;;10.82;3.85;;;;;;;7.62;69.01;100674.94;5030939;28;20124;-47
2021/04/28 06:17:37;;;;;;;7.78;2.60;;;;;;;7.56;69.13;100673.50;5030640;28;20045;-46
2021/04/28 06:20:09;;;;;;;13.55;4.00;;;;;;;7.56;69.25;100673.50;5028276;28;20041;-47
2021/04/28 06:22:36;;;;;;;12.45;3.45;;;;;;;7.57;68.85;100680.59;5025224;28;20077;-46
2021/04/28 06:25:06;;;;;;;12.15;4.00;;;;;;;7.56;69.31;100684.50;5030310;28;20133;-45
2021/04/28 06:27:32;;;;;;;6.60;2.83;;;;;;;7.54;69.01;100684.03;5030338;28;20077;-45
2021/04/28 06:29:58;;;;;;;8.38;3.25;;;;;;;7.54;68.55;100686.78;5030487;28;20105;-46
2021/04/28 06:32:28;;;;;;;7.97;3.95;;;;;;;7.53;68.52;100685.16;5011241;28;20056;-46
2021/04/28 06:34:54;;;;;;;9.82;4.13;;;;;;;7.58;68.42;100686.94;5029710;28;20052;-46
2021/04/28 06:37:21;;;;;;;16.30;3.92;;;;;;;7.57;68.37;100694.38;5031357;28;20136;-45
2021/04/28 06:39:47;;;;;;;13.00;4.45;;;;;;;7.56;68.49;100689.19;5034201;28;20080;-45
2021/04/28 06:42:14;;;;;;;9.55;3.47;;;;;;;7.54;68.37;100689.53;5038962;28;20549;-46
2021/04/28 06:44:41;;;;;;;9.90;3.28;;;;;;;7.59;68.33;100707.84;5027970;28;20037;-46
2021/04/28 06:47:09;;;;;;;11.82;3.42;;;;;;;7.63;68.38;100695.84;5028578;28;20057;-49
2021/04/28 06:49:35;;;;;;;15.75;3.60;;;;;;;7.64;68.45;100696.66;5029721;28;20081;-47
2021/04/28 06:52:02;;;;;;;8.05;2.90;;;;;;;7.63;68.03;100701.34;5028892;28;20124;-47
2021/04/28 06:54:29;;;;;;;9.88;3.22;;;;;;;7.54;68.16;100700.56;5030604;28;20046;-45
2021/04/28 06:56:56;;;;;;;14.98;3.88;;;;;;;7.52;68.40;100708.31;5034580;28;20496;-45
2021/04/28 06:59:23;;;;;;;13.02;3.95;;;;;;;7.53;68.30;100700.88;5045372;28;20045;-45
2021/04/28 07:01:52;;;;;;;10.32;2.92;;;;;;;7.54;67.88;100702.50;5030283;28;20069;-45
2021/04/28 07:04:19;;;;;;;15.85;3.75;;;;;;;7.55;67.93;100704.91;5032894;28;20084;-46
2021/04/28 07:06:49;;;;;;;12.23;3.65;;;;;;;7.55;68.07;100698.59;5015340;28;20057;-48
2021/04/28 07:09:16;;;;;;;11.32;3.58;;;;;;;7.53;68.13;100703.63;5025508;28;20538;-46
2021/04/28 07:11:44;;;;;;;7.50;3.20;;;;;;;7.52;67.98;100705.56;5029873;28;20115;-45
2021/04/28 07:14:11;;;;;;;11.50;3.78;;;;;;;7.53;67.90;100707.19;5030118;28;20053;-46
2021/04/28 07:16:38;;;;;;;12.77;4.03;;;;;;;7.52;68.12;100700.06;5031324;28;20049;-49
2021/04/28 07:19:04;;;;;;;15.25;3.92;;;;;;;7.51;67.94;100719.69;5013596;28;20042;-45
2021/04/28 07:21:31;;;;;;;17.85;3.25;;;;;;;7.55;67.86;100715.94;5032092;28;20111;-47
2021/04/28 07:24:00;;;;;;;8.20;3.30;;;;;;;7.59;67.79;100711.41;5030863;28;20402;-46
2021/04/28 07:26:29;;;;;;;16.80;7.68;;;;;;;7.64;67.94;100716.75;5029856;28;20041;-45
2021/04/28 07:28:56;;;;;;;6.72;4.65;;;;;;;7.62;67.63;100723.72;5029898;28;20050;-46
2021/04/28 07:31:23;;;;;;;11.88;3.30;;;;;;;7.57;67.56;100713.66;5032480;28;20068;-46
2021/04/28 07:33:49;;;;;;;12.05;3.22;;;;;;;7.59;67.64;100716.94;5031127;28;20092;-45
2021/04/28 07:36:16;;;;;;;7.50;2.80;;;;;;;7.61;67.49;100717.41;5015059;28;20149;-50
2021/04/28 07:38:42;;;;;;;12.95;3.28;;;;;;;7.67;67.54;100729.88;5036475;28;20553;-49
2021/04/28 07:41:09;;;;;;;15.50;3.50;;;;;;;7.68;67.41;100727.91;5029351;28;20466;-51
2021/04/28 07:43:36;;;;;;;14.43;3.60;;;;;;;7.68;67.40;100725.16;5030581;28;20084;-45
2021/04/28 07:46:03;;;;;;;6.18;3.20;;;;;;;7.72;67.68;100715.94;5030423;28;20494;-50
2021/04/28 07:48:32;;;;;;;12.70;3.53;;;;;;;7.71;67.12;100739.09;5030586;28;20409;-47
2021/04/28 07:51:02;;;;;;;8.90;3.85;;;;;;;7.73;67.20;100725.78;5030994;28;20041;-48
2021/04/28 07:53:29;;;;;;;11.07;3.33;;;;;;;7.75;67.30;100731.81;5012098;28;20108;-49
2021/04/28 07:55:55;;;;;;;25.75;5.10;;;;;;;7.78;67.38;100739.41;5029310;28;20427;-48
2021/04/28 07:58:22;;;;;;;11.85;3.47;;;;;;;7.80;67.14;100728.88;5031134;28;20692;-51
2021/04/28 08:00:48;;;;;;;11.90;3.03;;;;;;;7.76;67.07;100736.16;5029876;28;20044;-46
2021/04/28 08:03:16;;;;;;;8.43;2.92;;;;;;;7.78;67.03;100736.66;5024666;28;20144;-49
2021/04/28 08:05:42;;;;;;;11.70;3.28;;;;;;;7.84;66.92;100726.25;5041345;28;20049;-50
2021/04/28 08:08:09;;;;;;;7.07;3.03;;;;;;;7.86;66.78;100740.56;5028617;28;20068;-47
2021/04/28 08:10:35;;;;;;;7.03;3.08;;;;;;;7.90;66.57;100733.22;5030037;28;20076;-45
2021/04/28 08:13:07;;;;;;;15.07;4.30;;;;;;;7.92;66.37;100742.78;5030180;28;20053;-48
2021/04/28 08:15:34;;;;;;;11.27;2.95;;;;;;;7.93;66.64;100744.41;5029004;28;20061;-46
2021/04/28 08:18:01;;;;;;;9.88;3.40;;;;;;;7.96;66.47;100748.47;5029246;28;20457;-48
2021/04/28 08:20:28;;;;;;;17.55;5.90;;;;;;;7.94;66.34;100743.28;5030403;28;20137;-46
2021/04/28 08:22:54;;;;;;;8.93;3.60;;;;;;;7.96;66.20;100752.03;5029546;28;20052;-46
2021/04/28 08:25:21;;;;;;;11.23;3.03;;;;;;;7.96;66.58;100743.78;5028704;28;20045;-49
2021/04/28 08:27:50;;;;;;;14.27;3.65;;;;;;;7.97;66.39;100741.81;5019921;28;20037;-47
2021/04/28 08:30:17;;;;;;;14.25;3.00;;;;;;;7.96;66.32;100743.78;5034938;28;20049;-46
2021/04/28 08:32:45;;;;;;;14.82;5.60;;;;;;;7.99;66.46;100750.56;5010221;28;20069;-46
2021/04/28 08:35:14;;;;;;;8.35;3.25;;;;;;;8.06;66.19;100753.63;5035435;28;20041;-48
2021/04/28 08:37:45;;;;;;;10.13;3.67;;;;;;;8.10;65.89;100754.59;5028558;28;20053;-46
2021/04/28 08:40:13;;;;;;;8.98;3.30;;;;;;;8.08;66.17;100750.53;5044170;28;20107;-46
2021/04/28 08:42:40;;;;;;;13.20;2.75;;;;;;;8.08;65.99;100761.56;5033846;28;20100;-47
2021/04/28 08:45:08;;;;;;;11.77;5.03;;;;;;;8.12;65.97;100763.34;5017352;28;20136;-46
2021/04/28 08:47:36;;;;;;;11.40;3.95;;;;;;;8.15;65.90;100759.13;5030410;28;20069;-46
2021/04/28 08:50:06;;;;;;;10.13;3.15;;;;;;;8.20;65.71;100759.78;5030401;28;20048;-46
2021/04/28 08:52:35;;;;;;;15.18;3.15;;;;;;;8.34;65.73;100756.84;5001904;28;20042;-46
2021/04/28 08:55:04;;;;;;;8.63;3.17;;;;;;;8.41;65.43;100762.66;5028708;28;20113;-46
2021/04/28 08:57:30;;;;;;;14.68;3.30;;;;;;;8.43;65.12;100763.13;5029867;28;20467;-49
2021/04/28 08:59:56;;;;;;;9.93;2.97;;;;;;;8.45;65.08;100760.84;5032057;28;20152;-45
2021/04/28 09:02:24;;;;;;;5.13;3.38;;;;;;;8.47;64.84;100755.81;5031048;28;20125;-47
2021/04/28 09:05:07;;;;;;;13.90;2.75;;;;;;;8.52;64.17;100755.63;5028964;28;20517;-46
2021/04/28 09:07:34;;;;;;;13.73;3.65;;;;;;;8.51;64.32;100765.84;5014116;28;20562;-50
2021/04/28 09:10:04;;;;;;;7.38;2.65;;;;;;;8.53;64.31;100765.50;5010225;28;20111;-48
2021/04/28 09:12:30;;;;;;;10.82;2.85;;;;;;;8.58;64.04;100762.56;5029292;28;20057;-46
2021/04/28 09:14:59;;;;;;;8.75;3.25;;;;;;;8.64;64.14;100758.47;5026909;28;20077;-48
2021/04/28 09:17:26;;;;;;;9.18;2.60;;;;;;;8.75;64.28;100756.97;5011239;28;20045;-47
2021/04/28 09:20:13;;;;;;;13.65;2.78;;;;;;;8.79;62.53;100759.88;5029219;28;20127;-47
2021/04/28 09:22:50;;;;;;;7.57;3.85;;;;;;;8.81;63.29;100766.69;5028342;28;20156;-50
2021/04/28 09:25:36;;;;;;;9.80;2.00;;;;;;;8.91;63.13;100763.56;5012329;28;20065;-49
2021/04/28 09:28:31;;;;;;;9.57;2.70;;;;;;;9.02;62.63;100764.78;5019253;28;20037;-48
2021/04/28 09:31:06;;;;;;;7.13;3.00;;;;;;;9.02;62.43;100764.78;5025798;28;20132;-46
2021/04/28 09:33:59;;;;;;;11.25;4.15;;;;;;;8.98;62.13;100772.09;5021456;28;20133;-49
2021/04/28 09:36:32;;;;;;;6.25;3.30;;;;;;;9.06;62.58;100773.19;5028171;28;20044;-47
2021/04/28 09:39:18;;;;;;;10.05;2.88;;;;;;;9.11;61.35;100770.22;5029099;28;20045;-48
2021/04/28 09:41:50;;;;;;;12.23;3.15;;;;;;;9.14;62.44;100778.66;5026390;28;20045;-46
2021/04/28 09:44:17;;;;;;;8.88;2.78;;;;;;;9.08;62.14;100774.47;5026697;28;20053;-50
2021/04/28 09:47:05;;;;;;;8.73;2.50;;;;;;;9.04;61.23;100773.53;5028195;28;20049;-47
2021/04/28 09:49:58;;;;;;;11.50;4.25;;;;;;;9.18;60.73;100768.59;5035276;23;20116;-60
2021/04/28 09:52:30;;;;;;;9.43;2.83;;;;;;;9.47;61.57;100775.19;5001013;28;20133;-47
2021/04/28 09:55:04;;;;;;;23.10;4.28;;;;;;;9.55;61.19;100780.66;5008201;28;20471;-51
2021/04/28 09:57:42;;;;;;;15.60;4.55;;;;;;;9.56;60.73;100786.97;5007361;28;20124;-50
2021/04/28 10:00:24;;;;;;;9.05;2.88;;;;;;;9.49;60.55;100775.66;5007815;28;20042;-51
2021/04/28 10:03:04;;;;;;;5.70;2.55;;;;;;;9.52;59.12;100777.75;5003313;28;20123;-51
2021/04/28 10:05:36;;;;;;;7.00;3.20;;;;;;;9.58;60.29;100781.94;5001871;28;20046;-51
2021/04/28 10:08:23;;;;;;;5.18;2.30;;;;;;;9.88;60.02;100785.41;5005697;28;20030;-52
2021/04/28 10:10:52;;;;;;;9.60;3.05;;;;;;;10.06;60.40;100793.19;4990184;28;20566;-51
2021/04/28 10:13:19;;;;;;;9.05;2.53;;;;;;;10.04;60.37;100789.97;4994428;28;20053;-48
2021/04/28 10:15:46;;;;;;;10.13;3.13;;;;;;;9.92;60.08;100787.16;5008535;28;20057;-52
2021/04/28 10:18:14;;;;;;;10.30;2.92;;;;;;;10.10;60.09;100783.06;4990039;28;20403;-49
2021/04/28 10:20:42;;;;;;;7.82;2.47;;;;;;;10.63;59.85;100790.50;5007118;28;20050;-50
2021/04/28 10:23:16;;;;;;;4.75;2.00;;;;;;;10.95;58.87;100797.91;4984001;23;20453;-46
2021/04/28 10:25:47;;;;;;;22.02;3.92;;;;;;;10.86;57.82;100782.53;5018489;28;20057;-49
2021/04/28 10:28:15;;;;;;;9.27;3.28;;;;;;;10.72;58.82;100795.94;5028751;28;20048;-47
2021/04/28 10:30:49;;;;;;;10.68;2.40;;;;;;;10.47;58.75;100795.06;5031023;28;20106;-46
2021/04/28 10:33:32;;;;;;;8.82;3.28;;;;;;;10.22;57.25;100793.38;5030830;28;20786;-46
2021/04/28 10:36:19;;;;;;;6.00;2.38;;;;;;;9.96;58.62;100787.28;5047889;28;20049;-46
2021/04/28 10:38:50;;;;;;;7.90;2.95;;;;;;;9.86;59.14;100788.50;5041355;28;20414;-49
2021/04/28 10:41:40;;;;;;;9.32;3.08;;;;;;;9.91;59.31;100788.31;5009348;28;20053;-46
2021/04/28 10:44:30;;;;;;;13.65;2.90;;;;;;;10.02;58.46;100783.97;5009147;28;20045;-50
2021/04/28 10:47:28;;;;;;;18.75;4.40;;;;;;;9.98;58.65;100791.31;5031485;28;20049;-47
2021/04/28 10:50:21;;;;;;;15.43;3.72;;;;;;;10.00;58.78;100789.03;5017692;23;20714;-53
2021/04/28 10:53:02;;;;;;;10.20;2.92;;;;;;;10.73;58.73;100780.91;5017387;28;20037;-51
2021/04/28 10:55:50;;;;;;;5.88;2.60;;;;;;;10.90;57.60;100794.53;5011800;28;20072;-52
2021/04/28 10:58:26;;;;;;;10.20;2.47;;;;;;;10.76;56.67;100794.06;5034438;22;20096;-47
2021/04/28 11:01:02;;;;;;;11.68;2.65;;;;;;;10.66;57.15;100781.50;5031183;28;20087;-46
2021/04/28 11:03:36;;;;;;;10.38;2.90;;;;;;;10.51;57.35;100789.66;5030365;28;20054;-46
2021/04/28 11:06:25;;;;;;;8.32;2.45;;;;;;;10.60;57.34;100793.94;5030878;28;20045;-48
2021/04/28 11:08:55;;;;;;;4.80;2.25;;;;;;;10.62;57.42;100788.03;5014819;28;20501;-47
2021/04/28 11:14:20;;;;;;;7.95;2.33;;;;;;;10.56;56.14;100797.75;5031384;28;20049;-43
2021/04/28 11:17:17;;;;;;;6.97;2.60;;;;;;;10.38;56.88;100784.09;5031154;28;20037;-48
2021/04/28 11:19:44;;;;;;;8.48;2.35;;;;;;;10.42;57.49;100791.72;5033181;28;20601;-52
2021/04/28 11:22:26;;;;;;;7.63;2.45;;;;;;;10.49;57.56;100789.19;5014060;28;20050;-47
2021/04/28 11:25:06;;;;;;;9.02;2.95;;;;;;;10.53;57.13;100785.41;5030119;28;20037;-47
2021/04/28 11:27:47;;;;;;;12.68;2.67;;;;;;;10.67;57.57;100790.63;5024812;28;20041;-47
2021/04/28 11:30:22;;;;;;;23.77;3.72;;;;;;;10.83;56.58;100795.09;5028963;28;20144;-47
2021/04/28 11:33:03;;;;;;;7.35;2.42;;;;;;;10.68;56.14;100787.50;5029883;28;20510;-46
2021/04/28 11:35:30;;;;;;;9.77;2.00;;;;;;;10.61;57.25;100778.16;5031485;28;20061;-50
2021/04/28 11:38:09;;;;;;;12.13;3.13;;;;;;;10.54;56.06;100787.00;5030776;28;20072;-53
2021/04/28 11:41:06;;;;;;;6.20;2.42;;;;;;;10.55;56.45;100773.97;5030965;28;20049;-50
2021/04/28 11:43:41;;;;;;;11.27;2.88;;;;;;;10.64;56.35;100794.06;5028640;28;20037;-50